createdAt,value
2018-03-25T00:00:36.056Z,9.43
2018-03-25T00:03:04.345Z,9.41
2018-03-25T00:05:32.159Z,9.39
2018-03-25T00:07:59.713Z,9.38
2018-03-25T00:10:27.313Z,9.40
2018-03-25T00:12:54.906Z,9.37
2018-03-25T00:15:22.830Z,9.37
2018-03-25T00:17:50.398Z,9.39
2018-03-25T00:20:18.426Z,9.39
2018-03-25T00:22:45.980Z,9.39
2018-03-25T00:25:13.584Z,9.39
2018-03-25T00:27:41.160Z,9.37
2018-03-25T00:30:08.764Z,9.38
2018-03-25T00:32:36.371Z,9.40
2018-03-25T00:35:04.007Z,9.37
2018-03-25T00:37:31.613Z,9.38
2018-03-25T00:39:59.160Z,9.39
2018-03-25T00:42:26.779Z,9.40
2018-03-25T00:44:54.344Z,9.38
2018-03-25T00:47:22.429Z,9.37
2018-03-25T00:49:50.018Z,9.35
2018-03-25T00:52:17.617Z,9.34
2018-03-25T00:54:45.181Z,9.36
2018-03-25T00:57:12.781Z,9.37
2018-03-25T00:59:40.334Z,9.34
2018-03-25T01:02:08.520Z,9.34
2018-03-25T01:04:36.114Z,9.32
2018-03-25T01:07:03.673Z,9.30
2018-03-25T01:09:31.223Z,9.31
2018-03-25T01:11:58.819Z,9.30
2018-03-25T01:14:26.380Z,9.30
2018-03-25T01:16:53.928Z,9.32
2018-03-25T01:19:21.516Z,9.31
2018-03-25T01:21:49.905Z,9.30
2018-03-25T01:24:17.446Z,9.30
2018-03-25T01:26:45.799Z,9.30
2018-03-25T01:29:13.402Z,9.29
2018-03-25T01:31:40.944Z,9.28
2018-03-25T01:34:08.962Z,9.27
2018-03-25T01:36:36.572Z,9.28
2018-03-25T01:39:04.172Z,9.28
2018-03-25T01:41:31.751Z,9.30
2018-03-25T01:43:59.360Z,9.28
2018-03-25T01:46:26.903Z,9.28
2018-03-25T01:48:54.507Z,9.31
2018-03-25T01:51:22.061Z,9.31
2018-03-25T01:53:49.599Z,9.31
2018-03-25T01:56:17.193Z,9.32
2018-03-25T01:58:44.744Z,9.32
2018-03-25T02:01:12.667Z,9.34
2018-03-25T02:03:40.732Z,9.21
2018-03-25T02:06:08.964Z,9.21
2018-03-25T02:08:36.917Z,9.09
2018-03-25T02:11:04.509Z,8.95
2018-03-25T02:13:32.894Z,8.89
2018-03-25T02:16:00.941Z,8.96
2018-03-25T02:18:28.532Z,9.02
2018-03-25T02:20:56.127Z,9.04
2018-03-25T02:23:24.703Z,9.09
2018-03-25T02:25:52.265Z,9.04
2018-03-25T02:28:20.676Z,9.09
2018-03-25T02:30:48.230Z,8.69
2018-03-25T02:33:15.849Z,8.72
2018-03-25T02:35:43.762Z,8.78
2018-03-25T02:38:11.740Z,8.85
2018-03-25T02:40:40.312Z,8.93
2018-03-25T02:43:07.868Z,8.97
2018-03-25T02:45:35.451Z,8.97
2018-03-25T02:48:03.009Z,8.98
2018-03-25T02:50:30.599Z,8.94
2018-03-25T02:52:58.140Z,8.97
2018-03-25T02:55:25.742Z,8.96
2018-03-25T02:57:53.293Z,9.00
2018-03-25T03:00:20.882Z,9.04
2018-03-25T03:02:48.477Z,9.12
2018-03-25T03:05:16.490Z,9.15
2018-03-25T03:07:44.053Z,9.09
2018-03-25T03:10:11.646Z,9.12
2018-03-25T03:12:40.038Z,9.14
2018-03-25T03:15:07.579Z,9.17
2018-03-25T03:17:35.174Z,9.11
2018-03-25T03:20:02.743Z,9.13
2018-03-25T03:22:30.356Z,9.14
2018-03-25T03:24:57.939Z,9.17
2018-03-25T03:27:26.420Z,9.18
2018-03-25T03:29:54.433Z,9.20
2018-03-25T03:32:22.684Z,9.24
2018-03-25T03:34:50.227Z,9.26
2018-03-25T03:37:17.826Z,9.21
2018-03-25T03:39:45.418Z,8.76
2018-03-25T03:42:13.007Z,8.73
2018-03-25T03:44:40.595Z,8.79
2018-03-25T03:47:08.979Z,8.74
2018-03-25T03:49:36.528Z,8.79
2018-03-25T03:52:04.132Z,8.77
2018-03-25T03:54:31.670Z,8.79
2018-03-25T03:56:59.260Z,8.82
2018-03-25T03:59:26.846Z,8.82
2018-03-25T04:01:54.401Z,8.86
2018-03-25T04:04:21.992Z,8.86
2018-03-25T04:06:49.544Z,8.90
2018-03-25T04:09:17.651Z,8.91
2018-03-25T04:11:45.496Z,8.93
2018-03-25T04:14:13.358Z,8.99
2018-03-25T04:16:40.972Z,9.02
2018-03-25T04:19:08.572Z,9.05
2018-03-25T04:21:36.829Z,9.09
2018-03-25T04:24:04.420Z,9.12
2018-03-25T04:26:31.977Z,9.12
2018-03-25T04:28:59.528Z,9.14
2018-03-25T04:31:27.127Z,9.09
2018-03-25T04:33:54.681Z,9.11
2018-03-25T04:36:22.263Z,9.03
2018-03-25T04:38:49.860Z,9.06
2018-03-25T04:41:17.444Z,9.06
2018-03-25T04:43:44.990Z,9.05
2018-03-25T04:46:12.595Z,8.96
2018-03-25T04:48:40.173Z,8.98
2018-03-25T04:51:08.241Z,9.02
2018-03-25T04:53:35.839Z,9.08
2018-03-25T04:56:03.459Z,9.10
2018-03-25T04:58:31.061Z,9.23
2018-03-25T05:00:58.613Z,9.29
2018-03-25T05:03:26.413Z,9.29
2018-03-25T05:05:54.076Z,9.30
2018-03-25T05:08:21.619Z,9.23
2018-03-25T05:10:50.027Z,9.24
2018-03-25T05:13:17.620Z,9.22
2018-03-25T05:15:45.180Z,9.18
2018-03-25T05:18:13.516Z,9.18
2018-03-25T05:20:41.073Z,9.16
2018-03-25T05:23:09.481Z,9.16
2018-03-25T05:25:37.023Z,9.22
2018-03-25T05:28:05.135Z,9.21
2018-03-25T05:30:33.535Z,9.20
2018-03-25T05:33:01.247Z,9.19
2018-03-25T05:35:28.809Z,9.19
2018-03-25T05:37:56.402Z,9.21
2018-03-25T05:40:24.001Z,9.32
2018-03-25T05:42:52.421Z,9.31
2018-03-25T05:45:19.972Z,9.34
2018-03-25T05:47:48.173Z,9.39
2018-03-25T05:50:15.727Z,9.40
2018-03-25T05:52:43.327Z,9.38
2018-03-25T05:55:10.920Z,9.33
2018-03-25T05:57:39.063Z,9.32
2018-03-25T06:00:06.680Z,9.31
2018-03-25T06:02:35.051Z,9.26
2018-03-25T06:05:03.305Z,9.27
2018-03-25T06:07:31.332Z,9.35
2018-03-25T06:09:59.162Z,9.39
2018-03-25T06:12:27.979Z,9.41
2018-03-25T06:14:55.535Z,9.37
2018-03-25T06:17:24.545Z,9.47
2018-03-25T06:19:52.138Z,9.50
2018-03-25T06:22:20.688Z,9.49
2018-03-25T06:24:48.555Z,9.48
2018-03-25T06:27:16.144Z,9.59
2018-03-25T06:29:43.903Z,9.59
2018-03-25T06:32:11.456Z,9.57
2018-03-25T06:34:39.949Z,9.59
2018-03-25T06:37:07.513Z,9.54
2018-03-25T06:39:35.469Z,9.68
2018-03-25T06:42:03.024Z,9.67
2018-03-25T06:44:30.832Z,9.63
2018-03-25T06:46:59.235Z,9.60
2018-03-25T06:49:27.042Z,9.56
2018-03-25T06:51:56.333Z,9.51
2018-03-25T06:54:23.893Z,9.50
2018-03-25T06:56:53.059Z,9.50
2018-03-25T06:59:20.797Z,9.54
2018-03-25T07:01:48.480Z,9.73
2018-03-25T07:04:16.313Z,9.87
2018-03-25T07:06:43.869Z,9.93
2018-03-25T07:09:11.473Z,9.93
2018-03-25T07:11:39.072Z,10.02
2018-03-25T07:14:06.624Z,9.99
2018-03-25T07:16:34.221Z,10.07
2018-03-25T07:19:01.772Z,10.08
2018-03-25T07:21:29.925Z,10.01
2018-03-25T07:23:57.518Z,9.94
2018-03-25T07:26:25.071Z,9.89
2018-03-25T07:28:52.681Z,9.84
2018-03-25T07:31:20.284Z,9.82
2018-03-25T07:33:47.892Z,9.96
2018-03-25T07:36:15.503Z,10.06
2018-03-25T07:38:43.546Z,10.06
2018-03-25T07:41:11.152Z,10.17
2018-03-25T07:43:39.147Z,10.18
2018-03-25T07:46:06.753Z,10.13
2018-03-25T07:48:34.300Z,9.96
2018-03-25T07:51:01.903Z,9.90
2018-03-25T07:53:29.499Z,10.02
2018-03-25T07:55:57.113Z,10.04
2018-03-25T07:58:24.718Z,10.16
2018-03-25T08:00:52.638Z,10.17
2018-03-25T08:03:20.249Z,10.16
2018-03-25T08:05:47.833Z,10.17
2018-03-25T08:08:15.428Z,10.17
2018-03-25T08:10:42.985Z,10.18
2018-03-25T08:13:10.575Z,10.20
2018-03-25T08:15:38.531Z,10.21
2018-03-25T08:18:06.125Z,10.22
2018-03-25T08:20:33.705Z,10.23
2018-03-25T08:23:01.926Z,10.24
2018-03-25T08:25:30.439Z,10.28
2018-03-25T08:27:58.088Z,10.30
2018-03-25T08:30:26.199Z,10.31
2018-03-25T08:32:53.753Z,10.49
2018-03-25T08:35:21.829Z,10.54
2018-03-25T08:37:49.384Z,10.58
2018-03-25T08:40:16.976Z,10.62
2018-03-25T08:42:45.227Z,10.64
2018-03-25T08:45:12.778Z,10.67
2018-03-25T08:47:40.731Z,10.73
2018-03-25T08:50:09.423Z,10.74
2018-03-25T08:52:37.013Z,10.76
2018-03-25T08:55:04.769Z,10.79
2018-03-25T08:57:32.337Z,10.82
2018-03-25T08:59:59.966Z,10.85
2018-03-25T09:02:27.533Z,10.84
2018-03-25T09:04:55.619Z,10.86
2018-03-25T09:07:23.915Z,10.87
2018-03-25T09:09:51.479Z,10.86
2018-03-25T09:12:19.095Z,10.88
2018-03-25T09:14:48.139Z,10.90
2018-03-25T09:17:15.971Z,10.91
2018-03-25T09:19:43.523Z,10.93
2018-03-25T09:22:11.116Z,10.93
2018-03-25T09:24:38.940Z,10.94
2018-03-25T09:27:06.536Z,10.92
2018-03-25T09:29:34.089Z,10.91
2018-03-25T09:32:02.536Z,11.00
2018-03-25T09:34:30.151Z,11.05
2018-03-25T09:36:58.116Z,11.07
2018-03-25T09:39:26.565Z,11.06
2018-03-25T09:41:54.121Z,11.04
2018-03-25T09:44:22.090Z,11.01
2018-03-25T09:46:50.693Z,11.00
2018-03-25T09:49:18.243Z,11.02
2018-03-25T09:51:45.795Z,11.03
2018-03-25T09:54:13.891Z,11.07
2018-03-25T09:56:41.477Z,11.14
2018-03-25T09:59:09.080Z,11.15
2018-03-25T10:01:42.316Z,11.20
2018-03-25T10:04:11.078Z,11.24
2018-03-25T10:06:38.633Z,11.28
2018-03-25T10:09:06.772Z,11.28
2018-03-25T10:11:34.319Z,11.32
2018-03-25T10:14:01.884Z,11.33
2018-03-25T10:16:29.482Z,11.32
2018-03-25T10:18:57.130Z,11.29
2018-03-25T10:21:24.660Z,11.30
2018-03-25T10:23:52.738Z,11.29
2018-03-25T10:26:22.197Z,11.28
2018-03-25T10:28:49.805Z,11.27
2018-03-25T10:31:17.886Z,11.24
2018-03-25T10:33:45.476Z,11.21
2018-03-25T10:36:13.036Z,11.15
2018-03-25T10:38:41.159Z,11.11
2018-03-25T10:41:08.767Z,11.08
2018-03-25T10:43:36.359Z,11.08
2018-03-25T10:46:04.516Z,11.06
2018-03-25T10:48:32.123Z,11.04
2018-03-25T10:51:00.577Z,11.04
2018-03-25T10:53:29.400Z,11.00
2018-03-25T10:55:56.993Z,11.01
2018-03-25T10:58:25.433Z,10.98
2018-03-25T11:00:53.523Z,10.98
2018-03-25T11:03:21.135Z,10.97
2018-03-25T11:05:49.702Z,10.86
2018-03-25T11:08:17.863Z,10.82
2018-03-25T11:10:46.238Z,10.82
2018-03-25T11:13:13.828Z,10.84
2018-03-25T11:15:41.387Z,10.95
2018-03-25T11:18:09.358Z,10.97
2018-03-25T11:20:36.972Z,10.56
2018-03-25T11:23:04.610Z,10.55
2018-03-25T11:25:33.177Z,10.60
2018-03-25T11:28:00.746Z,10.83
2018-03-25T11:30:28.356Z,10.95
2018-03-25T11:32:55.935Z,10.99
2018-03-25T11:35:24.221Z,11.03
2018-03-25T11:37:51.805Z,11.02
2018-03-25T11:40:19.396Z,10.99
2018-03-25T11:42:47.756Z,10.96
2018-03-25T11:45:16.214Z,10.94
2018-03-25T11:47:43.768Z,10.93
2018-03-25T11:50:11.355Z,10.89
2018-03-25T11:52:38.918Z,10.89
2018-03-25T11:55:06.515Z,10.57
2018-03-25T11:57:34.067Z,10.54
2018-03-25T12:00:03.052Z,10.48
2018-03-25T12:02:31.404Z,10.52
2018-03-25T12:04:59.900Z,10.59
2018-03-25T12:07:27.680Z,10.63
2018-03-25T12:09:55.227Z,10.66
2018-03-25T12:12:22.774Z,10.68
2018-03-25T12:14:50.403Z,10.69
2018-03-25T12:17:19.147Z,10.72
2018-03-25T12:19:47.197Z,10.75
2018-03-25T12:22:15.483Z,10.76
2018-03-25T12:24:43.083Z,10.80
2018-03-25T12:27:12.293Z,10.82
2018-03-25T12:29:39.900Z,10.55
2018-03-25T12:32:07.626Z,10.53
2018-03-25T12:34:35.723Z,10.56
2018-03-25T12:37:04.168Z,10.62
2018-03-25T12:39:31.777Z,10.67
2018-03-25T12:42:00.245Z,10.70
2018-03-25T12:44:27.849Z,10.74
2018-03-25T12:46:56.555Z,10.73
2018-03-25T12:49:25.166Z,10.86
2018-03-25T12:51:52.903Z,10.91
2018-03-25T12:54:20.950Z,10.93
2018-03-25T12:56:48.773Z,10.90
2018-03-25T12:59:16.371Z,10.91
2018-03-25T13:01:45.554Z,10.93
2018-03-25T13:04:14.734Z,10.94
2018-03-25T13:06:43.341Z,10.95
2018-03-25T13:09:11.738Z,10.94
2018-03-25T13:11:39.295Z,10.97
2018-03-25T13:14:08.245Z,10.94
2018-03-25T13:16:36.062Z,10.91
2018-03-25T13:19:03.796Z,11.00
2018-03-25T13:21:31.911Z,11.00
2018-03-25T13:24:00.901Z,10.97
2018-03-25T13:26:28.497Z,10.94
2018-03-25T13:28:56.100Z,10.92
2018-03-25T13:31:24.327Z,10.77
2018-03-25T13:33:52.740Z,10.77
2018-03-25T13:36:20.617Z,10.77
2018-03-25T13:38:48.722Z,10.77
2018-03-25T13:41:16.697Z,10.76
2018-03-25T13:43:45.342Z,10.76
2018-03-25T13:46:12.936Z,10.74
2018-03-25T13:48:41.243Z,10.74
2018-03-25T13:51:08.844Z,10.86
2018-03-25T13:53:36.392Z,10.88
2018-03-25T13:56:04.928Z,10.88
2018-03-25T13:58:32.538Z,10.86
2018-03-25T14:01:00.874Z,10.82
2018-03-25T14:03:28.974Z,10.94
2018-03-25T14:05:56.573Z,10.80
2018-03-25T14:08:24.309Z,10.72
2018-03-25T14:10:52.006Z,10.71
2018-03-25T14:13:19.553Z,10.68
2018-03-25T14:15:47.181Z,10.65
2018-03-25T14:18:14.732Z,10.64
2018-03-25T14:20:44.006Z,10.66
2018-03-25T14:23:12.554Z,10.67
2018-03-25T14:25:40.125Z,10.68
2018-03-25T14:28:08.643Z,10.67
2018-03-25T14:30:36.212Z,10.68
2018-03-25T14:33:03.814Z,10.67
2018-03-25T14:35:31.424Z,10.66
2018-03-25T14:37:59.242Z,10.66
2018-03-25T14:40:27.807Z,10.66
2018-03-25T14:42:56.003Z,10.61
2018-03-25T14:45:23.582Z,10.58
2018-03-25T14:47:51.206Z,10.54
2018-03-25T14:50:20.128Z,10.38
2018-03-25T14:52:48.882Z,10.19
2018-03-25T14:55:18.028Z,10.27
2018-03-25T14:57:45.984Z,10.32
2018-03-25T15:00:14.796Z,10.37
2018-03-25T15:02:43.588Z,10.40
2018-03-25T15:05:11.739Z,10.42
2018-03-25T15:07:40.121Z,10.46
2018-03-25T15:10:08.523Z,10.49
2018-03-25T15:12:36.570Z,10.47
2018-03-25T15:15:04.473Z,10.45
2018-03-25T15:17:32.703Z,10.48
2018-03-25T15:20:00.793Z,10.45
2018-03-25T15:22:29.186Z,10.39
2018-03-25T15:24:57.783Z,10.42
2018-03-25T15:27:26.933Z,10.44
2018-03-25T15:29:55.844Z,10.48
2018-03-25T15:32:24.851Z,10.46
2018-03-25T15:34:54.468Z,10.37
2018-03-25T15:37:23.154Z,10.27
2018-03-25T15:39:52.763Z,10.24
2018-03-25T15:42:21.051Z,10.25
2018-03-25T15:44:49.817Z,10.06
2018-03-25T15:47:18.585Z,10.03
2018-03-25T15:49:47.184Z,9.85
2018-03-25T15:52:15.574Z,9.80
2018-03-25T15:54:44.278Z,9.69
2018-03-25T15:57:12.737Z,9.62
2018-03-25T15:59:41.275Z,9.34
2018-03-25T16:02:09.427Z,9.18
2018-03-25T16:04:38.064Z,9.18
2018-03-25T16:07:06.664Z,9.03
2018-03-25T16:09:35.133Z,9.05
2018-03-25T16:12:03.858Z,9.05
2018-03-25T16:14:33.432Z,9.12
2018-03-25T16:17:02.132Z,9.02
2018-03-25T16:19:30.408Z,8.77
2018-03-25T16:21:59.521Z,8.63
2018-03-25T16:24:30.314Z,8.68
2018-03-25T16:26:58.847Z,8.63
2018-03-25T16:29:27.456Z,8.58
2018-03-25T16:31:56.058Z,8.58
2018-03-25T16:34:25.000Z,8.48
2018-03-25T16:36:54.357Z,8.53
2018-03-25T16:39:24.598Z,8.51
2018-03-25T16:41:53.199Z,8.28
2018-03-25T16:44:23.211Z,8.24
2018-03-25T16:46:52.408Z,8.30
2018-03-25T16:49:21.380Z,8.41
2018-03-25T16:51:50.476Z,8.57
2018-03-25T16:54:18.869Z,8.63
2018-03-25T16:56:52.137Z,8.64
2018-03-25T16:59:22.562Z,8.55
2018-03-25T17:01:51.282Z,8.53
2018-03-25T17:04:19.729Z,8.58
2018-03-25T17:06:48.349Z,8.58
2018-03-25T17:09:18.633Z,8.57
2018-03-25T17:11:49.721Z,8.51
2018-03-25T17:14:18.487Z,8.55
2018-03-25T17:16:47.698Z,8.70
2018-03-25T17:19:17.675Z,8.81
2018-03-25T17:21:46.914Z,8.91
2018-03-25T17:24:16.358Z,9.00
2018-03-25T17:26:45.009Z,8.87
2018-03-25T17:29:15.007Z,8.68
2018-03-25T17:31:44.411Z,8.80
2018-03-25T17:34:15.009Z,8.93
2018-03-25T17:36:44.789Z,9.05
2018-03-25T17:39:13.590Z,9.12
2018-03-25T17:41:43.499Z,9.12
2018-03-25T17:44:14.965Z,9.07
2018-03-25T17:46:43.802Z,9.04
2018-03-25T17:49:12.958Z,8.81
2018-03-25T17:51:41.671Z,8.75
2018-03-25T17:54:10.263Z,8.84
2018-03-25T17:56:40.550Z,8.94
2018-03-25T17:59:10.399Z,8.67
2018-03-25T18:01:39.765Z,8.52
2018-03-25T18:04:08.572Z,8.50
2018-03-25T18:06:38.070Z,8.52
2018-03-25T18:09:07.469Z,8.50
2018-03-25T18:11:36.153Z,8.50
2018-03-25T18:14:07.488Z,8.28
2018-03-25T18:16:37.943Z,8.10
2018-03-25T18:19:07.559Z,7.95
2018-03-25T18:21:36.555Z,7.90
2018-03-25T18:24:05.751Z,7.88
2018-03-25T18:26:35.056Z,7.97
2018-03-25T18:29:04.764Z,8.20
2018-03-25T18:31:35.711Z,8.15
2018-03-25T18:34:04.591Z,8.30
2018-03-25T18:36:33.386Z,8.33
2018-03-25T18:39:02.946Z,8.05
2018-03-25T18:41:32.410Z,7.92
2018-03-25T18:44:01.879Z,8.04
2018-03-25T18:46:30.649Z,8.05
2018-03-25T18:49:00.144Z,8.03
2018-03-25T18:51:29.072Z,8.00
2018-03-25T18:53:58.064Z,7.87
2018-03-25T18:56:26.842Z,7.91
2018-03-25T18:58:54.884Z,8.02
2018-03-25T19:01:24.492Z,8.12
2018-03-25T19:03:54.242Z,7.87
2018-03-25T19:06:23.856Z,7.65
2018-03-25T19:08:53.311Z,7.51
2018-03-25T19:11:25.313Z,7.71
2018-03-25T19:13:54.302Z,7.80
2018-03-25T19:16:23.794Z,7.97
2018-03-25T19:18:51.800Z,8.23
2018-03-25T19:21:21.895Z,8.11
2018-03-25T19:23:50.671Z,8.08
2018-03-25T19:26:20.865Z,8.01
2018-03-25T19:28:50.120Z,8.04
2018-03-25T19:31:18.889Z,7.84
2018-03-25T19:33:48.456Z,7.65
2018-03-25T19:36:17.560Z,7.49
2018-03-25T19:38:47.804Z,7.42
2018-03-25T19:41:15.862Z,7.37
2018-03-25T19:43:44.979Z,7.43
2018-03-25T19:46:13.789Z,7.41
2018-03-25T19:48:42.962Z,7.44
2018-03-25T19:51:12.266Z,7.33
2018-03-25T19:53:46.538Z,7.23
2018-03-25T19:56:17.070Z,7.21
2018-03-25T19:58:46.422Z,7.18
2018-03-25T20:01:15.363Z,7.19
2018-03-25T20:03:44.208Z,7.20
2018-03-25T20:06:13.652Z,7.13
2018-03-25T20:08:44.190Z,7.14
2018-03-25T20:11:12.986Z,7.14
2018-03-25T20:13:42.169Z,7.25
2018-03-25T20:16:11.703Z,7.37
2018-03-25T20:18:40.595Z,7.45
2018-03-25T20:21:09.018Z,7.38
2018-03-25T20:23:37.473Z,7.36
2018-03-25T20:26:07.745Z,7.48
2018-03-25T20:28:37.658Z,7.44
2018-03-25T20:31:06.654Z,7.32
2018-03-25T20:33:35.030Z,7.42
2018-03-25T20:36:03.763Z,7.73
2018-03-25T20:38:33.913Z,7.61
2018-03-25T20:41:03.435Z,7.65
2018-03-25T20:43:32.096Z,7.79
2018-03-25T20:46:04.904Z,7.85
2018-03-25T20:48:33.302Z,7.84
2018-03-25T20:51:03.746Z,7.73
2018-03-25T20:53:32.799Z,7.64
2018-03-25T20:56:04.256Z,7.44
2018-03-25T20:58:33.359Z,7.46
2018-03-25T21:01:02.643Z,7.65
2018-03-25T21:03:30.920Z,7.43
2018-03-25T21:05:59.608Z,7.33
2018-03-25T21:08:28.862Z,7.40
2018-03-25T21:10:57.130Z,7.24
2018-03-25T21:13:26.589Z,7.33
2018-03-25T21:15:55.266Z,7.54
2018-03-25T21:18:24.260Z,7.54
2018-03-25T21:20:54.468Z,7.49
2018-03-25T21:23:23.728Z,7.39
2018-03-25T21:25:52.404Z,7.16
2018-03-25T21:28:21.565Z,7.05
2018-03-25T21:30:49.844Z,7.02
2018-03-25T21:33:18.524Z,6.98
2018-03-25T21:35:47.824Z,7.27
2018-03-25T21:38:16.128Z,7.40
2018-03-25T21:40:44.573Z,7.26
2018-03-25T21:43:12.950Z,7.36
2018-03-25T21:45:41.224Z,7.45
2018-03-25T21:48:09.232Z,7.49
2018-03-25T21:50:37.456Z,7.47
2018-03-25T21:53:05.720Z,7.50
2018-03-25T21:55:33.277Z,7.55
2018-03-25T21:58:01.093Z,7.49
2018-03-25T22:00:28.951Z,7.47
2018-03-25T22:02:56.546Z,7.38
2018-03-25T22:05:24.142Z,7.40
2018-03-25T22:07:52.404Z,7.61
2018-03-25T22:10:19.968Z,7.71
2018-03-25T22:12:47.516Z,7.71
2018-03-25T22:15:15.120Z,7.72
2018-03-25T22:17:42.680Z,7.85
2018-03-25T22:20:10.286Z,7.78
2018-03-25T22:22:38.840Z,7.67
2018-03-25T22:25:06.436Z,7.74
2018-03-25T22:27:34.722Z,7.84
2018-03-25T22:30:02.472Z,7.83
2018-03-25T22:32:30.175Z,7.80
2018-03-25T22:34:58.300Z,7.95
2018-03-25T22:37:25.898Z,7.81
2018-03-25T22:39:53.504Z,7.68
2018-03-25T22:42:21.097Z,7.75
2018-03-25T22:44:48.644Z,8.01
2018-03-25T22:47:16.228Z,8.25
2018-03-25T22:49:43.783Z,8.49
2018-03-25T22:52:11.395Z,8.31
2018-03-25T22:54:38.941Z,8.37
2018-03-25T22:57:06.539Z,8.53
2018-03-25T22:59:34.083Z,8.55
2018-03-25T23:02:01.667Z,8.67
2018-03-25T23:04:29.261Z,8.67
2018-03-25T23:06:56.860Z,8.63
2018-03-25T23:09:24.461Z,8.51
2018-03-25T23:11:51.998Z,8.62
2018-03-25T23:14:20.024Z,8.70
2018-03-25T23:16:47.620Z,8.57
2018-03-25T23:19:15.178Z,8.58
2018-03-25T23:21:42.720Z,8.65
2018-03-25T23:24:10.308Z,8.74
2018-03-25T23:26:37.908Z,8.69
2018-03-25T23:29:05.507Z,8.56
2018-03-25T23:31:33.149Z,8.58
2018-03-25T23:34:00.745Z,8.38
2018-03-25T23:36:28.638Z,8.48
2018-03-25T23:38:56.215Z,8.03
2018-03-25T23:41:23.851Z,8.03
2018-03-25T23:43:51.435Z,8.13
2018-03-25T23:46:19.571Z,8.29
2018-03-25T23:48:47.175Z,8.13
2018-03-25T23:51:14.781Z,7.64
2018-03-25T23:53:42.339Z,7.45
2018-03-25T23:56:09.928Z,7.63
2018-03-25T23:58:37.467Z,7.86
